Time;durP1;ratioP1;P1;durP2;ratioP2;P2;SDS_P1;SDS_P2;PMS_P1;PMS_P2;Temp;Humidity;BMP_temperature;BMP_pressure;BME280_temperature;BME280_humidity;BME280_pressure;Samples;Min_cycle;Max_cycle;Signal;HPM_P1;HPM_P2
2020/12/03 00:00:32;;;;;;;28.23;17.10;;;2.50;99.90;;;;;;5033322;28;20233;-84
2020/12/03 00:03:03;;;;;;;27.75;19.05;;;2.40;99.90;;;;;;5023622;28;20192;-84
2020/12/03 00:05:29;;;;;;;31.13;21.45;;;2.30;99.90;;;;;;5026163;28;20196;-84
2020/12/03 00:07:57;;;;;;;27.92;19.13;;;2.30;99.90;;;;;;5026252;28;20207;-83
2020/12/03 00:10:26;;;;;;;28.30;18.70;;;2.30;99.90;;;;;;5025563;28;20238;-84
2020/12/03 00:13:11;;;;;;;34.15;18.50;;;2.40;99.90;;;;;;5026166;28;20606;-84
2020/12/03 00:15:39;;;;;;;37.20;20.65;;;2.40;99.90;;;;;;5026606;28;20589;-84
2020/12/03 00:18:07;;;;;;;29.65;20.10;;;2.40;99.90;;;;;;5031098;28;20204;-82
2020/12/03 00:20:34;;;;;;;35.20;20.50;;;2.40;99.90;;;;;;5032292;28;20231;-82
2020/12/03 00:23:01;;;;;;;27.70;18.77;;;2.50;99.90;;;;;;5032599;28;20211;-82
2020/12/03 00:25:27;;;;;;;35.10;22.52;;;2.50;99.90;;;;;;5032207;28;20208;-82
2020/12/03 00:27:56;;;;;;;34.83;19.08;;;2.50;99.90;;;;;;5032280;28;20207;-82
2020/12/03 00:30:23;;;;;;;32.55;21.25;;;2.50;99.90;;;;;;5032234;28;20234;-81
2020/12/03 00:32:50;;;;;;;34.38;21.30;;;2.60;99.90;;;;;;5029092;28;20235;-83
2020/12/03 00:35:18;;;;;;;33.60;19.98;;;2.60;99.90;;;;;;5026037;28;20208;-84
2020/12/03 00:37:45;;;;;;;31.20;21.77;;;2.60;99.90;;;;;;5025615;28;20212;-84
2020/12/03 00:40:11;;;;;;;31.92;20.02;;;2.60;99.90;;;;;;5026193;28;20236;-84
2020/12/03 00:42:37;;;;;;;32.90;20.85;;;2.50;99.90;;;;;;5025545;28;20200;-83
2020/12/03 00:45:05;;;;;;;35.40;20.67;;;2.50;99.90;;;;;;5026135;28;20214;-84
2020/12/03 00:47:35;;;;;;;34.05;22.08;;;2.30;99.90;;;;;;5025854;28;20582;-84
2020/12/03 00:50:07;;;;;;;29.48;20.02;;;2.30;99.90;;;;;;5025604;28;20235;-84
2020/12/03 00:52:41;;;;;;;33.97;19.83;;;2.20;99.90;;;;;;5025139;28;20594;-84
2020/12/03 00:55:10;;;;;;;34.28;20.55;;;2.10;99.90;;;;;;5025021;28;20211;-84
2020/12/03 00:57:37;;;;;;;30.77;19.45;;;2.00;99.90;;;;;;5024841;28;20210;-84
2020/12/03 01:00:06;;;;;;;35.95;18.73;;;2.10;99.90;;;;;;5024647;28;20224;-83
2020/12/03 01:02:33;;;;;;;29.80;18.75;;;2.10;99.90;;;;;;5024864;28;20207;-84
2020/12/03 01:04:59;;;;;;;34.15;22.42;;;2.20;99.90;;;;;;5025151;28;20211;-84
2020/12/03 01:07:26;;;;;;;30.45;18.65;;;2.30;99.90;;;;;;5025216;28;20217;-84
2020/12/03 01:09:53;;;;;;;39.17;22.65;;;2.30;99.90;;;;;;5024717;28;20684;-84
2020/12/03 01:12:19;;;;;;;32.60;18.35;;;2.30;99.90;;;;;;5024967;28;20220;-84
2020/12/03 01:14:45;;;;;;;33.45;22.20;;;2.30;99.90;;;;;;5024235;28;20585;-84
2020/12/03 01:17:14;;;;;;;30.40;20.00;;;2.40;99.90;;;;;;5024426;28;20207;-84
2020/12/03 01:19:41;;;;;;;28.73;19.45;;;2.40;99.90;;;;;;5024975;28;20211;-84
2020/12/03 01:22:07;;;;;;;38.25;20.15;;;2.40;99.90;;;;;;5023927;28;20292;-84
2020/12/03 01:24:35;;;;;;;38.13;19.00;;;2.30;99.90;;;;;;5024659;28;20325;-84
2020/12/03 01:27:02;;;;;;;33.33;18.75;;;2.30;99.90;;;;;;5024824;28;20222;-84
2020/12/03 01:29:28;;;;;;;30.55;18.67;;;2.40;99.90;;;;;;5023898;28;20215;-83
2020/12/03 01:31:55;;;;;;;35.53;19.20;;;2.40;99.90;;;;;;5023661;28;20227;-84
2020/12/03 01:34:22;;;;;;;30.55;20.30;;;2.40;99.90;;;;;;5024342;28;20219;-83
2020/12/03 01:36:49;;;;;;;30.42;20.23;;;2.40;99.90;;;;;;5024177;28;20215;-84
2020/12/03 01:39:15;;;;;;;29.17;18.05;;;2.50;99.90;;;;;;5025211;28;20207;-83
2020/12/03 01:41:42;;;;;;;34.55;21.20;;;2.50;99.90;;;;;;5023889;28;20231;-84
2020/12/03 01:44:11;;;;;;;33.72;20.92;;;2.50;99.90;;;;;;5023945;28;20208;-84
2020/12/03 01:46:40;;;;;;;33.75;20.27;;;2.50;99.90;;;;;;5024151;28;20219;-84
2020/12/03 01:49:15;;;;;;;27.55;18.55;;;2.60;99.90;;;;;;5023940;28;20207;-84
2020/12/03 01:51:43;;;;;;;27.73;19.17;;;2.60;99.90;;;;;;5024048;28;20241;-84
2020/12/03 01:54:13;;;;;;;34.72;22.35;;;2.60;99.90;;;;;;5024160;28;20208;-84
2020/12/03 01:57:02;;;;;;;38.78;21.88;;;2.60;99.90;;;;;;5024382;28;20211;-84
2020/12/03 01:59:40;;;;;;;30.60;19.38;;;2.70;99.90;;;;;;5023965;28;20208;-84
2020/12/03 02:02:10;;;;;;;36.97;23.95;;;2.70;99.90;;;;;;5024271;28;20389;-84
2020/12/03 02:04:36;;;;;;;33.28;20.35;;;2.70;99.90;;;;;;5024403;28;20593;-84
2020/12/03 02:07:04;;;;;;;44.20;22.92;;;2.70;99.90;;;;;;5025044;28;20207;-84
2020/12/03 02:09:31;;;;;;;40.75;23.75;;;2.70;99.90;;;;;;5024682;28;20214;-84
2020/12/03 02:11:57;;;;;;;31.77;21.42;;;2.70;99.90;;;;;;5024480;28;20311;-84
2020/12/03 02:14:24;;;;;;;35.22;21.27;;;2.60;99.90;;;;;;5024197;28;20215;-83
2020/12/03 02:16:51;;;;;;;36.85;24.30;;;2.60;99.90;;;;;;5023906;28;20211;-84
2020/12/03 02:19:20;;;;;;;40.25;21.90;;;2.60;99.90;;;;;;5024120;28;20211;-84
2020/12/03 02:21:54;;;;;;;34.58;21.35;;;2.60;99.90;;;;;;5023667;28;20228;-84
2020/12/03 02:24:20;;;;;;;34.72;21.45;;;2.60;99.90;;;;;;5023776;28;20583;-84
2020/12/03 02:26:50;;;;;;;38.50;21.88;;;2.50;99.90;;;;;;5024538;28;20210;-84
2020/12/03 02:29:18;;;;;;;33.05;22.73;;;2.50;99.90;;;;;;5023729;28;20212;-84
2020/12/03 02:31:45;;;;;;;37.17;23.52;;;2.50;99.90;;;;;;5023271;28;20240;-84
2020/12/03 02:34:11;;;;;;;39.85;22.17;;;2.40;99.90;;;;;;5026736;28;20215;-84
2020/12/03 02:36:37;;;;;;;47.13;25.10;;;2.40;99.90;;;;;;5027161;28;20214;-85
2020/12/03 02:39:05;;;;;;;45.70;21.92;;;2.40;99.90;;;;;;5027629;28;20210;-83
2020/12/03 02:41:31;;;;;;;39.97;24.52;;;2.30;99.90;;;;;;5026962;28;20235;-84
2020/12/03 02:43:59;;;;;;;35.75;21.60;;;2.30;99.90;;;;;;5027032;28;20296;-83
2020/12/03 02:46:25;;;;;;;41.90;26.40;;;2.30;99.90;;;;;;5027160;28;20211;-84
2020/12/03 02:48:51;;;;;;;36.20;22.35;;;2.30;99.90;;;;;;5027007;28;20212;-84
2020/12/03 02:51:18;;;;;;;33.47;21.35;;;2.20;99.90;;;;;;5026541;28;20254;-84
2020/12/03 02:53:44;;;;;;;36.42;22.60;;;2.20;99.90;;;;;;5026936;28;20234;-83
2020/12/03 02:56:12;;;;;;;34.97;23.92;;;2.20;99.90;;;;;;5027038;28;20204;-84
2020/12/03 02:58:38;;;;;;;36.95;25.33;;;2.20;99.90;;;;;;5026533;28;20216;-84
2020/12/03 03:01:05;;;;;;;37.95;23.10;;;2.20;99.90;;;;;;5027416;28;20235;-84
2020/12/03 03:03:31;;;;;;;35.70;20.35;;;2.20;99.90;;;;;;5025959;28;20204;-84
2020/12/03 03:05:57;;;;;;;39.95;23.35;;;2.20;99.90;;;;;;5027279;28;20218;-84
2020/12/03 03:08:23;;;;;;;35.88;22.67;;;2.20;99.90;;;;;;5026402;28;20208;-84
2020/12/03 03:10:50;;;;;;;37.45;25.75;;;2.20;99.90;;;;;;5025303;28;20728;-83
2020/12/03 03:13:18;;;;;;;40.83;22.13;;;2.20;99.90;;;;;;5025716;28;20690;-83
2020/12/03 03:15:44;;;;;;;42.13;24.42;;;2.20;99.90;;;;;;5026164;28;20592;-84
2020/12/03 03:18:10;;;;;;;36.58;22.65;;;2.20;99.90;;;;;;5026274;28;20219;-84
2020/12/03 03:20:36;;;;;;;34.42;23.65;;;2.20;99.90;;;;;;5025592;28;20236;-84
2020/12/03 03:23:03;;;;;;;40.25;22.13;;;2.20;99.90;;;;;;5025581;28;20208;-84
2020/12/03 03:25:29;;;;;;;44.80;24.45;;;2.20;99.90;;;;;;5025909;28;20244;-84
2020/12/03 03:27:56;;;;;;;38.70;23.65;;;2.20;99.90;;;;;;5026455;28;20211;-83
2020/12/03 03:30:23;;;;;;;35.17;25.08;;;2.20;99.90;;;;;;5026140;28;20229;-84
2020/12/03 03:32:49;;;;;;;38.00;24.92;;;2.10;99.90;;;;;;5025537;28;20231;-84
2020/12/03 03:35:17;;;;;;;37.13;23.50;;;2.10;99.90;;;;;;5025734;28;20210;-84
2020/12/03 03:37:44;;;;;;;37.72;21.45;;;2.00;99.90;;;;;;5025263;28;20212;-84
2020/12/03 03:40:10;;;;;;;39.80;23.83;;;2.00;99.90;;;;;;5025473;28;20228;-83
2020/12/03 03:42:37;;;;;;;44.58;27.33;;;2.00;99.90;;;;;;5025248;28;20200;-84
2020/12/03 03:45:04;;;;;;;38.10;22.30;;;2.00;99.90;;;;;;5024676;28;20208;-84
2020/12/03 03:47:31;;;;;;;42.00;24.20;;;2.00;99.90;;;;;;5025667;28;20231;-84
2020/12/03 03:49:58;;;;;;;41.00;24.15;;;2.00;99.90;;;;;;5024763;28;20240;-83
2020/12/03 03:52:24;;;;;;;34.20;23.88;;;2.00;99.90;;;;;;5024485;28;20237;-84
2020/12/03 03:54:50;;;;;;;36.42;23.40;;;2.00;99.90;;;;;;5030202;28;20208;-81
2020/12/03 03:57:17;;;;;;;34.47;24.60;;;2.00;99.90;;;;;;5039457;28;20207;-84
2020/12/03 03:59:48;;;;;;;41.95;22.88;;;2.10;99.90;;;;;;5027469;28;20247;-84
2020/12/03 04:02:15;;;;;;;35.75;20.98;;;2.10;99.90;;;;;;5025723;28;20212;-84
2020/12/03 04:04:42;;;;;;;35.45;22.38;;;2.10;99.90;;;;;;5025009;28;20574;-84
2020/12/03 04:07:11;;;;;;;40.58;24.20;;;2.10;99.90;;;;;;5096788;22;20237;-86
2020/12/03 04:09:38;;;;;;;35.53;24.70;;;2.10;99.90;;;;;;5042022;28;20214;-86
2020/12/03 04:12:04;;;;;;;32.05;23.10;;;2.10;99.90;;;;;;5041387;28;20226;-86
2020/12/03 04:14:31;;;;;;;42.08;24.98;;;2.30;99.90;;;;;;5042734;28;20207;-86
2020/12/03 04:16:58;;;;;;;32.20;22.17;;;2.30;99.90;;;;;;5043582;28;20234;-86
2020/12/03 04:19:24;;;;;;;40.28;26.17;;;2.30;99.90;;;;;;5043066;28;20314;-86
2020/12/03 04:21:51;;;;;;;36.13;22.20;;;2.30;99.90;;;;;;5054337;28;20187;-87
2020/12/03 04:24:18;;;;;;;34.95;23.05;;;2.30;99.90;;;;;;5059204;28;20203;-89
2020/12/03 04:26:45;;;;;;;32.28;21.52;;;2.40;99.90;;;;;;5058907;28;20236;-89
2020/12/03 04:29:14;;;;;;;33.45;21.17;;;2.30;99.90;;;;;;5057618;28;20204;-86
2020/12/03 04:31:41;;;;;;;34.42;22.52;;;2.30;99.90;;;;;;5044587;28;20203;-86
2020/12/03 04:34:07;;;;;;;35.60;21.63;;;2.30;99.90;;;;;;5044477;28;20207;-86
2020/12/03 04:36:34;;;;;;;34.50;24.70;;;2.30;99.90;;;;;;5044168;28;20227;-86
2020/12/03 04:39:01;;;;;;;33.90;22.90;;;2.20;99.90;;;;;;5044798;28;20203;-87
2020/12/03 04:41:28;;;;;;;35.78;21.00;;;2.30;99.90;;;;;;5055705;28;20183;-87
2020/12/03 04:44:02;;;;;;;23.55;18.83;;;2.70;99.90;;;;;;5057534;28;20206;-87
2020/12/03 04:46:34;;;;;;;35.20;22.27;;;2.20;99.90;;;;;;5055999;28;20218;-88
2020/12/03 04:49:26;;;;;;;27.15;16.35;;;2.10;99.90;;;;;;5056337;28;20179;-86
2020/12/03 04:52:22;;;;;;;29.00;18.92;;;2.10;99.90;;;;;;5057165;28;20219;-88
2020/12/03 04:54:58;;;;;;;25.30;16.10;;;2.00;99.90;;;;;;5031921;28;20207;-86
2020/12/03 04:57:31;;;;;;;25.27;18.00;;;2.00;99.90;;;;;;5057963;28;20223;-87
2020/12/03 05:00:03;;;;;;;27.88;18.35;;;2.00;99.90;;;;;;5058615;28;20194;-87
2020/12/03 05:03:08;;;;;;;25.67;19.15;;;2.00;99.90;;;;;;5058063;28;20195;-88
2020/12/03 05:05:39;;;;;;;32.22;17.90;;;2.00;99.90;;;;;;5027519;28;20266;-89
2020/12/03 05:08:09;;;;;;;28.50;18.50;;;2.00;99.90;;;;;;5057503;28;20219;-87
2020/12/03 05:10:40;;;;;;;32.00;20.77;;;2.20;99.90;;;;;;5057833;28;20203;-87
2020/12/03 05:13:17;;;;;;;26.83;18.83;;;2.00;99.90;;;;;;5057214;28;20205;-86
2020/12/03 05:15:43;;;;;;;27.20;17.90;;;2.00;99.90;;;;;;5057627;28;20227;-86
2020/12/03 05:18:47;;;;;;;30.15;18.75;;;2.00;99.90;;;;;;5057456;28;20266;-88
2020/12/03 05:21:19;;;;;;;25.90;17.23;;;2.00;99.90;;;;;;5057946;28;20187;-88
2020/12/03 05:23:45;;;;;;;22.52;15.95;;;2.00;99.90;;;;;;5057859;28;20199;-89
2020/12/03 05:26:17;;;;;;;33.15;19.13;;;2.00;99.90;;;;;;5058042;28;20223;-89
2020/12/03 05:28:50;;;;;;;26.58;15.98;;;1.90;99.90;;;;;;5054177;28;20364;-86
2020/12/03 05:31:30;;;;;;;25.50;17.55;;;2.00;99.90;;;;;;5056606;28;20182;-90
2020/12/03 05:34:00;;;;;;;33.33;20.48;;;2.10;99.90;;;;;;5058086;28;20253;-87
2020/12/03 05:36:30;;;;;;;21.60;17.20;;;2.10;99.90;;;;;;5058238;28;20212;-87
2020/12/03 05:38:57;;;;;;;19.30;16.23;;;2.10;99.90;;;;;;5058009;28;20247;-88
2020/12/03 05:41:28;;;;;;;25.05;17.17;;;2.10;99.90;;;;;;5057919;28;20267;-88
2020/12/03 05:43:54;;;;;;;24.50;17.42;;;2.10;99.90;;;;;;5058034;28;20222;-87
2020/12/03 05:46:23;;;;;;;23.13;15.82;;;2.00;99.90;;;;;;5057776;28;20254;-87
2020/12/03 05:49:02;;;;;;;20.52;14.18;;;2.00;99.90;;;;;;5056315;28;20211;-87
2020/12/03 05:51:31;;;;;;;21.02;14.35;;;2.10;99.90;;;;;;5057619;28;20191;-88
2020/12/03 05:54:05;;;;;;;26.85;16.98;;;2.20;99.90;;;;;;5057650;28;20207;-88
2020/12/03 05:56:32;;;;;;;21.02;14.50;;;2.30;99.90;;;;;;5057731;28;20226;-88
2020/12/03 05:59:13;;;;;;;27.02;16.73;;;2.20;99.90;;;;;;5057631;28;20183;-88
2020/12/03 06:01:54;;;;;;;24.75;16.17;;;2.20;99.90;;;;;;5057086;28;20226;-88
2020/12/03 06:04:23;;;;;;;22.98;17.45;;;2.30;99.90;;;;;;5057069;28;20197;-86
2020/12/03 06:07:36;;;;;;;23.88;17.13;;;2.20;99.90;;;;;;5056391;28;20237;-85
2020/12/03 06:10:25;;;;;;;19.55;15.23;;;2.30;99.90;;;;;;5042213;28;20207;-87
2020/12/03 06:13:34;;;;;;;19.25;13.95;;;2.30;99.90;;;;;;5060670;28;20281;-86
2020/12/03 06:16:13;;;;;;;20.13;14.13;;;2.30;99.90;;;;;;5034201;28;20219;-88
2020/12/03 06:19:03;;;;;;;22.10;14.30;;;2.30;99.90;;;;;;5061052;28;20445;-88
2020/12/03 06:21:50;;;;;;;18.88;14.02;;;2.40;99.90;;;;;;5061003;28;20210;-88
2020/12/03 06:24:35;;;;;;;21.40;15.90;;;2.40;99.90;;;;;;5061366;28;20207;-88
2020/12/03 06:27:29;;;;;;;19.83;14.05;;;2.40;99.90;;;;;;5060937;28;20226;-88
2020/12/03 06:30:03;;;;;;;18.35;13.98;;;2.50;99.90;;;;;;5060885;28;20219;-88
2020/12/03 06:32:59;;;;;;;19.52;14.93;;;2.50;99.90;;;;;;5060361;28;20253;-88
2020/12/03 06:35:38;;;;;;;18.83;12.90;;;2.50;99.90;;;;;;5060964;28;20183;-88
2020/12/03 06:38:21;;;;;;;21.42;13.70;;;2.50;99.90;;;;;;5060797;28;20195;-89
2020/12/03 06:40:57;;;;;;;17.55;13.00;;;2.50;99.90;;;;;;5060531;28;20175;-88
2020/12/03 06:43:32;;;;;;;22.52;15.05;;;2.50;99.90;;;;;;5060142;28;20218;-88
2020/12/03 06:46:27;;;;;;;23.58;16.85;;;2.50;99.90;;;;;;5060264;28;20242;-88
2020/12/03 06:49:33;;;;;;;15.90;12.98;;;2.50;99.90;;;;;;5060443;28;20246;-87
2020/12/03 06:52:29;;;;;;;19.10;14.68;;;2.60;99.90;;;;;;5037345;28;20213;-88
2020/12/03 06:55:25;;;;;;;19.10;14.45;;;2.60;99.90;;;;;;5057205;28;20203;-86
2020/12/03 06:58:27;;;;;;;21.85;14.40;;;2.60;99.90;;;;;;5044981;28;20265;-87
2020/12/03 07:01:40;;;;;;;19.75;14.82;;;2.60;99.90;;;;;;5053498;28;20215;-89
2020/12/03 07:04:55;;;;;;;20.42;13.85;;;2.60;99.90;;;;;;4979813;28;20699;-86
2020/12/03 07:07:51;;;;;;;23.92;15.35;;;2.60;99.90;;;;;;4978599;28;20291;-87
2020/12/03 07:10:56;;;;;;;20.95;15.15;;;2.50;99.90;;;;;;5036215;28;20217;-86
2020/12/03 07:14:34;;;;;;;16.50;12.40;;;2.60;99.90;;;;;;5039620;28;20231;-86
2020/12/03 07:17:22;;;;;;;20.75;14.20;;;2.60;99.90;;;;;;4977961;28;20232;-86
2020/12/03 07:20:36;;;;;;;18.90;14.52;;;2.60;99.90;;;;;;4975658;28;20189;-87
2020/12/03 07:23:07;;;;;;;19.27;14.90;;;2.70;99.90;;;;;;5039891;28;20233;-85
2020/12/03 07:25:33;;;;;;;15.82;12.75;;;2.70;99.90;;;;;;5042700;28;20240;-87
2020/12/03 07:28:08;;;;;;;17.67;12.40;;;2.70;99.90;;;;;;5040936;28;20569;-87
2020/12/03 07:30:49;;;;;;;15.02;12.23;;;2.80;99.90;;;;;;5040843;28;20215;-86
2020/12/03 07:33:28;;;;;;;17.48;13.73;;;2.80;99.90;;;;;;5039004;28;20237;-87
2020/12/03 07:36:29;;;;;;;16.88;12.80;;;2.70;99.90;;;;;;5031685;28;20267;-85
2020/12/03 07:39:01;;;;;;;14.68;12.05;;;2.70;99.90;;;;;;5019015;28;20262;-87
2020/12/03 07:41:30;;;;;;;17.88;12.82;;;2.60;99.90;;;;;;5024869;28;20219;-86
2020/12/03 07:44:17;;;;;;;13.68;11.32;;;2.60;99.90;;;;;;5040478;28;20239;-87
2020/12/03 07:46:50;;;;;;;12.85;11.50;;;2.70;99.90;;;;;;5046514;28;20221;-88
2020/12/03 07:49:42;;;;;;;13.45;11.35;;;2.60;99.90;;;;;;5036974;28;20187;-86
2020/12/03 07:52:26;;;;;;;13.85;11.48;;;2.60;99.90;;;;;;5034221;28;20199;-86
2020/12/03 07:54:53;;;;;;;13.60;10.43;;;2.70;99.90;;;;;;5030462;28;20635;-86
2020/12/03 07:57:39;;;;;;;14.60;10.65;;;2.70;99.90;;;;;;5020592;28;20239;-85
2020/12/03 08:00:35;;;;;;;11.80;9.50;;;2.80;99.90;;;;;;5020387;28;20287;-85
2020/12/03 08:03:02;;;;;;;11.50;8.75;;;2.80;99.90;;;;;;5044968;28;20285;-85
2020/12/03 08:05:59;;;;;;;9.73;7.70;;;2.70;99.90;;;;;;5051401;28;20211;-89
2020/12/03 08:08:43;;;;;;;10.57;8.68;;;2.90;99.90;;;;;;5038758;28;20211;-86
2020/12/03 08:11:52;;;;;;;12.13;9.93;;;2.90;99.90;;;;;;5021336;28;20407;-86
2020/12/03 08:14:41;;;;;;;16.00;10.13;;;2.90;99.90;;;;;;5008537;28;20240;-88
2020/12/03 08:22:45;;;;;;;15.70;11.23;;;3.00;99.90;;;;;;5049979;28;20222;-89
2020/12/03 08:25:54;;;;;;;12.43;10.35;;;3.00;99.90;;;;;;5047933;28;20211;-84
2020/12/03 08:28:27;;;;;;;17.23;11.20;;;2.90;99.90;;;;;;5036011;28;20210;-89
2020/12/03 08:31:02;;;;;;;15.45;10.48;;;3.30;99.90;;;;;;5038493;28;20189;-90
2020/12/03 08:33:40;;;;;;;16.10;11.30;;;3.10;99.90;;;;;;5032890;28;20241;-88
2020/12/03 08:36:16;;;;;;;13.85;10.55;;;3.10;99.90;;;;;;5019259;28;20233;-87
2020/12/03 08:38:53;;;;;;;16.08;11.45;;;3.20;99.90;;;;;;5017021;28;20255;-88
2020/12/03 08:41:26;;;;;;;20.63;11.20;;;3.10;99.90;;;;;;5020862;28;20215;-86
2020/12/03 08:44:00;;;;;;;12.63;10.43;;;3.00;99.90;;;;;;5019773;28;20192;-86
2020/12/03 08:46:32;;;;;;;14.90;11.73;;;3.00;99.90;;;;;;5022245;28;20230;-84
2020/12/03 08:48:59;;;;;;;13.20;11.18;;;3.00;99.90;;;;;;5023971;28;20192;-84
2020/12/03 08:51:25;;;;;;;12.52;10.52;;;2.90;99.90;;;;;;5023971;28;20771;-88
2020/12/03 08:53:52;;;;;;;13.00;10.30;;;2.90;99.90;;;;;;5024334;28;20291;-85
2020/12/03 08:56:35;;;;;;;17.10;12.45;;;2.90;99.90;;;;;;5024515;28;20236;-84
2020/12/03 08:59:09;;;;;;;14.68;12.45;;;2.90;99.90;;;;;;5022727;28;20286;-86
2020/12/03 09:01:39;;;;;;;14.73;11.50;;;2.90;99.90;;;;;;5021791;28;20223;-84
2020/12/03 09:04:08;;;;;;;14.23;12.40;;;3.00;99.90;;;;;;5029039;28;20184;-84
2020/12/03 09:06:45;;;;;;;14.00;12.13;;;3.00;99.90;;;;;;5027579;28;20250;-82
2020/12/03 09:09:12;;;;;;;14.02;8.85;;;3.00;99.90;;;;;;5025668;28;20229;-84
2020/12/03 09:11:39;;;;;;;13.80;12.27;;;3.00;99.90;;;;;;5023777;28;20214;-84
2020/12/03 09:14:17;;;;;;;14.32;11.85;;;3.00;99.90;;;;;;5029306;28;20228;-91
2020/12/03 09:16:47;;;;;;;13.13;11.73;;;3.00;99.90;;;;;;5029183;28;20228;-84
2020/12/03 09:19:22;;;;;;;15.25;11.18;;;3.10;99.90;;;;;;5034407;28;20203;-85
2020/12/03 09:21:50;;;;;;;15.70;11.85;;;3.10;99.90;;;;;;5031860;28;20223;-86
2020/12/03 09:24:21;;;;;;;13.40;12.10;;;3.30;99.90;;;;;;5028011;28;20203;-87
2020/12/03 09:26:48;;;;;;;14.32;10.32;;;3.10;99.90;;;;;;5019977;28;20239;-86
2020/12/03 09:29:15;;;;;;;19.90;14.82;;;3.00;99.90;;;;;;5018875;28;20254;-87
2020/12/03 09:31:41;;;;;;;14.30;10.95;;;3.10;99.90;;;;;;5014620;28;20291;-87
2020/12/03 09:34:09;;;;;;;11.65;10.43;;;3.10;99.90;;;;;;5017815;28;20223;-84
2020/12/03 09:36:38;;;;;;;19.73;14.07;;;3.10;99.90;;;;;;5016371;28;20228;-84
2020/12/03 09:39:05;;;;;;;12.75;11.40;;;3.20;99.90;;;;;;5016347;28;20623;-86
2020/12/03 09:41:45;;;;;;;13.77;12.15;;;3.20;99.90;;;;;;5014647;28;20691;-84
2020/12/03 09:44:15;;;;;;;14.57;10.52;;;3.30;99.90;;;;;;5015976;28;20195;-84
2020/12/03 09:46:47;;;;;;;13.63;11.07;;;3.40;99.90;;;;;;5015856;28;20652;-84
2020/12/03 09:49:16;;;;;;;12.18;10.48;;;3.40;99.90;;;;;;5015312;28;20224;-84
2020/12/03 09:51:44;;;;;;;10.82;9.60;;;3.30;99.90;;;;;;5015034;28;20212;-84
2020/12/03 09:54:11;;;;;;;14.10;10.88;;;3.40;99.90;;;;;;5035308;28;20234;-84
2020/12/03 09:56:38;;;;;;;14.02;11.18;;;3.40;99.90;;;;;;5034608;28;20276;-83
2020/12/03 09:59:06;;;;;;;15.25;11.20;;;3.40;99.90;;;;;;5034347;28;20209;-85
2020/12/03 10:01:54;;;;;;;12.57;10.38;;;3.40;99.90;;;;;;5034731;28;20208;-85
2020/12/03 10:04:47;;;;;;;12.43;11.23;;;3.40;99.90;;;;;;5035080;28;20207;-85
2020/12/03 10:07:23;;;;;;;14.10;9.90;;;3.40;99.90;;;;;;5037824;28;20230;-85
2020/12/03 10:10:15;;;;;;;9.15;8.25;;;3.40;99.90;;;;;;5038568;28;20199;-85
2020/12/03 10:13:00;;;;;;;16.38;10.88;;;3.40;99.90;;;;;;5035197;28;20219;-85
2020/12/03 10:15:45;;;;;;;15.40;10.52;;;3.40;99.90;;;;;;5035355;28;20218;-83
2020/12/03 10:18:20;;;;;;;14.73;10.68;;;3.60;99.90;;;;;;5035943;28;20203;-82
2020/12/03 10:20:50;;;;;;;12.48;9.68;;;3.50;99.90;;;;;;5033895;28;20210;-83
2020/12/03 10:23:35;;;;;;;10.18;9.07;;;3.60;99.90;;;;;;5033572;28;20206;-82
2020/12/03 10:26:14;;;;;;;10.40;8.45;;;3.60;99.90;;;;;;5034494;28;20641;-84
2020/12/03 10:28:43;;;;;;;13.40;10.25;;;3.50;99.90;;;;;;5034415;28;20273;-82
2020/12/03 10:31:12;;;;;;;12.52;10.13;;;3.60;99.90;;;;;;5033083;28;20211;-87
2020/12/03 10:33:39;;;;;;;9.65;8.65;;;3.70;99.90;;;;;;5034690;28;20225;-85
2020/12/03 10:36:12;;;;;;;10.82;9.73;;;3.70;99.90;;;;;;5033824;28;20233;-85
2020/12/03 10:38:44;;;;;;;10.38;9.32;;;3.80;99.90;;;;;;5034174;28;20547;-83
2020/12/03 10:41:11;;;;;;;13.50;10.50;;;3.80;99.90;;;;;;5033684;28;20202;-83
2020/12/03 10:43:42;;;;;;;9.27;8.48;;;3.90;99.90;;;;;;5033635;28;20203;-84
2020/12/03 10:46:14;;;;;;;11.57;10.48;;;3.90;99.90;;;;;;5034076;28;20226;-83
2020/12/03 10:48:44;;;;;;;9.95;8.35;;;3.90;99.90;;;;;;5033686;28;20695;-83
2020/12/03 10:51:10;;;;;;;10.07;8.90;;;4.00;99.90;;;;;;5035301;28;20688;-83
2020/12/03 10:53:39;;;;;;;11.93;8.63;;;4.00;99.90;;;;;;5034101;28;20238;-85
2020/12/03 10:56:07;;;;;;;10.43;9.25;;;4.10;99.90;;;;;;5037881;28;20231;-84
2020/12/03 10:58:40;;;;;;;10.02;9.02;;;4.10;99.90;;;;;;5038230;28;20238;-85
2020/12/03 11:01:11;;;;;;;11.20;8.43;;;4.10;99.90;;;;;;5037057;28;20200;-86
2020/12/03 11:03:39;;;;;;;11.73;10.55;;;4.20;99.90;;;;;;5037170;28;20572;-84
2020/12/03 11:06:06;;;;;;;11.30;7.28;;;4.10;99.90;;;;;;5036934;28;20247;-82
2020/12/03 11:08:39;;;;;;;11.75;10.10;;;4.10;99.90;;;;;;5037598;28;20210;-84
2020/12/03 11:11:08;;;;;;;10.93;9.50;;;4.10;99.90;;;;;;5037193;28;20298;-83
2020/12/03 11:13:34;;;;;;;10.95;8.52;;;4.50;99.90;;;;;;5037317;28;20229;-85
2020/12/03 11:16:04;;;;;;;10.50;9.20;;;4.20;99.90;;;;;;5038136;28;20322;-84
2020/12/03 11:18:38;;;;;;;8.90;7.95;;;4.10;99.90;;;;;;5028923;28;20204;-86
2020/12/03 11:21:14;;;;;;;10.45;9.10;;;4.10;99.90;;;;;;5030106;28;20618;-84
2020/12/03 11:23:57;;;;;;;10.18;9.20;;;4.10;99.90;;;;;;5037366;28;20218;-84
2020/12/03 11:26:27;;;;;;;8.90;7.53;;;4.10;99.90;;;;;;5037942;28;20232;-89
2020/12/03 11:28:54;;;;;;;10.05;8.23;;;4.10;99.90;;;;;;5037753;28;20199;-84
2020/12/03 11:31:30;;;;;;;8.43;7.63;;;4.10;99.90;;;;;;5035847;28;20211;-85
2020/12/03 11:33:57;;;;;;;9.50;8.60;;;4.10;99.90;;;;;;5037415;28;20214;-85
2020/12/03 11:36:32;;;;;;;10.93;7.50;;;4.10;99.90;;;;;;5038157;28;20267;-84
2020/12/03 11:39:01;;;;;;;8.05;6.80;;;4.10;99.90;;;;;;5036282;28;20206;-85
2020/12/03 11:41:33;;;;;;;9.38;8.13;;;4.00;99.90;;;;;;5036108;28;20203;-85
2020/12/03 11:47:29;;;;;;;9.15;7.30;;;4.30;99.90;;;;;;5038165;28;20219;-85
2020/12/03 11:49:55;;;;;;;8.85;6.75;;;4.20;99.90;;;;;;5034053;28;20213;-86
2020/12/03 11:52:22;;;;;;;8.10;7.15;;;4.30;99.90;;;;;;5037326;28;20212;-85
2020/12/03 11:54:49;;;;;;;8.75;6.55;;;4.30;99.90;;;;;;5037880;28;20226;-87
2020/12/03 11:57:16;;;;;;;8.57;7.10;;;4.30;99.90;;;;;;5041868;28;20229;-86
2020/12/03 11:59:42;;;;;;;8.48;7.07;;;4.40;99.90;;;;;;5044446;28;20204;-87
2020/12/03 12:02:09;;;;;;;11.13;7.28;;;4.60;99.90;;;;;;5039588;28;20732;-84
2020/12/03 12:04:43;;;;;;;11.15;7.35;;;4.60;99.90;;;;;;5038119;28;20215;-86
2020/12/03 12:07:15;;;;;;;7.32;6.70;;;4.60;99.90;;;;;;5037344;28;20254;-86
2020/12/03 12:09:49;;;;;;;9.27;7.32;;;4.60;99.90;;;;;;5036538;28;20202;-86
2020/12/03 12:12:20;;;;;;;12.57;7.32;;;4.60;99.90;;;;;;5036270;28;20264;-86
2020/12/03 12:14:47;;;;;;;7.47;6.72;;;4.60;99.90;;;;;;5038740;28;20216;-86
2020/12/03 12:17:14;;;;;;;9.68;7.15;;;4.60;99.90;;;;;;5039952;28;20229;-88
2020/12/03 12:19:42;;;;;;;6.15;5.45;;;4.60;99.90;;;;;;5056553;28;20199;-85
2020/12/03 12:22:10;;;;;;;7.40;6.72;;;4.60;99.90;;;;;;5037974;28;20640;-86
2020/12/03 12:24:41;;;;;;;7.20;6.38;;;4.50;99.90;;;;;;5037967;28;20208;-89
2020/12/03 12:27:07;;;;;;;7.35;6.10;;;4.40;99.90;;;;;;5034929;28;20680;-87
2020/12/03 12:29:35;;;;;;;8.30;5.95;;;4.50;99.90;;;;;;5048165;28;20244;-87
2020/12/03 12:32:01;;;;;;;9.60;7.47;;;4.30;99.90;;;;;;5056229;28;20204;-86
2020/12/03 12:34:28;;;;;;;9.45;8.13;;;4.40;99.90;;;;;;5056072;28;20232;-86
2020/12/03 12:36:54;;;;;;;6.40;5.80;;;4.30;99.90;;;;;;5053553;28;20272;-87
2020/12/03 12:39:21;;;;;;;6.93;6.20;;;4.30;99.90;;;;;;5040899;28;20202;-87
2020/12/03 12:41:57;;;;;;;8.82;6.85;;;4.40;99.90;;;;;;5047525;28;20220;-86
2020/12/03 12:44:24;;;;;;;8.38;6.15;;;4.30;99.90;;;;;;5047838;28;20203;-88
2020/12/03 12:46:57;;;;;;;8.15;6.72;;;4.20;99.90;;;;;;5040738;28;20221;-87
2020/12/03 12:49:26;;;;;;;10.18;6.97;;;4.20;99.90;;;;;;5036408;28;20212;-89
2020/12/03 12:51:54;;;;;;;8.15;6.70;;;4.10;99.90;;;;;;5036944;28;20305;-88
2020/12/03 12:54:23;;;;;;;7.60;5.85;;;4.10;99.90;;;;;;5037228;28;20261;-86
2020/12/03 12:56:50;;;;;;;6.65;5.40;;;4.00;99.90;;;;;;5037734;28;20233;-86
2020/12/03 12:59:17;;;;;;;9.93;8.30;;;4.10;99.90;;;;;;5036450;28;20254;-86
2020/12/03 13:01:44;;;;;;;7.40;6.57;;;4.10;99.90;;;;;;5037934;28;20288;-86
2020/12/03 13:04:12;;;;;;;8.65;6.55;;;4.10;99.90;;;;;;5039446;28;20259;-88
2020/12/03 13:06:41;;;;;;;8.82;6.55;;;4.40;99.90;;;;;;5058833;28;20708;-86
2020/12/03 13:09:08;;;;;;;9.02;6.32;;;4.20;99.90;;;;;;5059239;28;20707;-85
2020/12/03 13:11:36;;;;;;;8.68;6.30;;;4.20;99.90;;;;;;5054299;28;20701;-86
2020/12/03 13:14:05;;;;;;;7.05;5.82;;;4.60;99.90;;;;;;5054638;28;20307;-86
2020/12/03 13:16:32;;;;;;;7.28;5.80;;;4.20;99.90;;;;;;5056695;28;20566;-86
2020/12/03 13:18:58;;;;;;;8.55;7.28;;;4.20;99.90;;;;;;5039864;28;20210;-85